Time;durP1;ratioP1;P1;durP2;ratioP2;P2;SDS_P1;SDS_P2;PMS_P1;PMS_P2;Temp;Humidity;BMP_temperature;BMP_pressure;BME280_temperature;BME280_humidity;BME280_pressure;Samples;Min_cycle;Max_cycle;Signal;HPM_P1;HPM_P2
2023/05/01 00:01:52;;;;;;;5.17;3.23;;;10.70;99.90;;;;;;4160546;28;20359;-69
2023/05/01 00:03:54;;;;;;;5.30;3.90;;;10.60;99.90;;;;;;4160354;28;20207;-70
2023/05/01 00:06:00;;;;;;;5.50;3.50;;;10.50;99.90;;;;;;4162312;28;20053;-71
2023/05/01 00:08:02;;;;;;;5.63;3.90;;;10.50;99.90;;;;;;4151703;28;20030;-67
2023/05/01 00:10:03;;;;;;;6.50;3.80;;;10.50;99.90;;;;;;4152875;28;20022;-60
2023/05/01 00:12:04;;;;;;;4.40;3.33;;;10.40;99.90;;;;;;4147033;28;20026;-67
2023/05/01 00:14:05;;;;;;;3.73;3.27;;;10.40;99.90;;;;;;4134837;28;20588;-61
2023/05/01 00:16:08;;;;;;;4.63;3.80;;;10.40;99.90;;;;;;4163031;28;20021;-63
2023/05/01 00:18:09;;;;;;;4.73;3.13;;;10.40;99.90;;;;;;4164150;28;20119;-70
2023/05/01 00:20:10;;;;;;;5.40;3.80;;;10.40;99.90;;;;;;4161122;28;20099;-71
2023/05/01 00:22:12;;;;;;;4.90;3.63;;;10.40;99.90;;;;;;4163606;28;20041;-70
2023/05/01 00:24:15;;;;;;;3.70;3.00;;;10.40;99.90;;;;;;4162315;28;20437;-64
2023/05/01 00:26:16;;;;;;;4.90;3.47;;;10.40;99.90;;;;;;4163683;28;20111;-67
2023/05/01 00:28:18;;;;;;;3.93;3.30;;;10.40;99.90;;;;;;4151591;28;20091;-63
2023/05/01 00:30:19;;;;;;;6.33;3.53;;;10.40;99.90;;;;;;4147562;28;20065;-68
2023/05/01 00:32:20;;;;;;;7.20;3.03;;;10.30;99.90;;;;;;4146232;28;20498;-65
2023/05/01 00:34:21;;;;;;;7.47;3.93;;;10.30;99.90;;;;;;4147131;28;20080;-68
2023/05/01 00:36:22;;;;;;;4.63;3.30;;;10.30;99.90;;;;;;4146691;28;20034;-69
2023/05/01 00:38:24;;;;;;;6.37;4.17;;;10.30;99.90;;;;;;4146627;28;20108;-65
2023/05/01 00:40:25;;;;;;;8.43;4.33;;;10.30;99.90;;;;;;4129652;28;20050;-68
2023/05/01 00:42:26;;;;;;;3.97;3.13;;;10.30;99.90;;;;;;4151027;28;20025;-67
2023/05/01 00:44:27;;;;;;;6.80;4.20;;;10.20;99.90;;;;;;4153885;28;20097;-67
2023/05/01 00:46:31;;;;;;;7.93;5.20;;;10.20;99.90;;;;;;4146294;28;20120;-65
2023/05/01 00:48:32;;;;;;;6.63;4.03;;;10.10;99.90;;;;;;4155935;28;20034;-68
2023/05/01 00:50:33;;;;;;;6.17;4.30;;;10.10;99.90;;;;;;4162696;28;20029;-71
2023/05/01 00:52:34;;;;;;;7.30;3.97;;;10.10;99.90;;;;;;4163782;28;20535;-67
2023/05/01 00:54:36;;;;;;;4.37;3.40;;;10.10;99.90;;;;;;4161756;28;20091;-69
2023/05/01 00:56:38;;;;;;;4.43;3.50;;;10.00;99.90;;;;;;4163678;28;20038;-64
2023/05/01 00:58:39;;;;;;;5.33;3.87;;;10.00;99.90;;;;;;4162528;28;20037;-69
2023/05/01 01:00:41;;;;;;;8.10;4.00;;;9.90;99.90;;;;;;4153646;28;20054;-67
2023/05/01 01:02:42;;;;;;;6.40;4.30;;;9.90;99.90;;;;;;4128041;28;20034;-66
2023/05/01 01:04:45;;;;;;;5.53;4.13;;;9.90;99.90;;;;;;4146725;28;20426;-68
2023/05/01 01:07:08;;;;;;;6.50;4.10;;;9.80;99.90;;;;;;4146387;28;20041;-70
2023/05/01 01:09:33;;;;;;;4.93;3.67;;;9.80;99.90;;;;;;4147077;28;20478;-68
2023/05/01 01:11:46;;;;;;;6.90;4.23;;;9.80;99.90;;;;;;4146006;28;20091;-65
2023/05/01 01:14:13;;;;;;;6.53;3.93;;;9.80;99.90;;;;;;4147147;28;20034;-67
2023/05/01 01:16:26;;;;;;;6.90;4.00;;;9.80;99.90;;;;;;4145237;28;20084;-66
2023/05/01 01:18:33;;;;;;;5.53;4.17;;;9.80;99.90;;;;;;4145984;28;20042;-66
2023/05/01 01:20:45;;;;;;;5.77;3.80;;;9.70;99.90;;;;;;4145898;28;20840;-67
2023/05/01 01:22:52;;;;;;;5.07;3.70;;;9.70;99.90;;;;;;4146996;28;20505;-66
2023/05/01 01:25:31;;;;;;;5.17;3.77;;;9.70;99.90;;;;;;4145626;28;20030;-71
2023/05/01 01:27:38;;;;;;;5.30;4.30;;;9.60;99.90;;;;;;4146866;28;20068;-69
2023/05/01 01:30:16;;;;;;;5.80;4.03;;;9.50;99.90;;;;;;4145703;28;20537;-67
2023/05/01 01:32:32;;;;;;;6.13;4.50;;;9.40;99.90;;;;;;4146316;28;20430;-68
2023/05/01 01:34:46;;;;;;;5.17;3.97;;;9.40;99.90;;;;;;4145747;28;20093;-66
2023/05/01 01:37:01;;;;;;;5.60;4.43;;;9.30;99.90;;;;;;4150746;28;20114;-66
2023/05/01 01:39:40;;;;;;;11.03;4.50;;;9.30;99.90;;;;;;4162276;28;20494;-68
2023/05/01 01:41:47;;;;;;;8.47;4.90;;;9.20;99.90;;;;;;4161807;28;20093;-67
2023/05/01 01:43:59;;;;;;;6.20;4.37;;;9.10;99.90;;;;;;4161815;28;20042;-69
2023/05/01 01:46:04;;;;;;;7.27;5.00;;;9.10;99.90;;;;;;4151462;28;20053;-66
2023/05/01 01:48:13;;;;;;;6.83;5.00;;;9.10;99.90;;;;;;4159890;28;20079;-68
2023/05/01 01:50:15;;;;;;;6.50;4.93;;;9.00;99.90;;;;;;4161833;28;20037;-66
2023/05/01 01:52:19;;;;;;;6.80;4.73;;;9.00;99.90;;;;;;4147052;28;20084;-69
2023/05/01 01:54:31;;;;;;;7.43;5.13;;;8.90;99.90;;;;;;4145721;28;20088;-70
2023/05/01 01:56:34;;;;;;;6.50;4.80;;;8.90;99.90;;;;;;4145801;28;20490;-71
2023/05/01 01:58:37;;;;;;;9.13;4.87;;;8.90;99.90;;;;;;4128528;28;20010;-67
2023/05/01 02:00:41;;;;;;;6.80;5.60;;;8.80;99.90;;;;;;4144681;28;20045;-64
2023/05/01 02:02:43;;;;;;;7.10;5.20;;;8.80;99.90;;;;;;4146545;28;20014;-71
2023/05/01 02:04:46;;;;;;;8.50;5.87;;;8.80;99.90;;;;;;4160586;28;20095;-71
2023/05/01 02:06:48;;;;;;;9.73;6.00;;;8.80;99.90;;;;;;4162551;28;20030;-70
2023/05/01 02:08:50;;;;;;;6.53;5.00;;;8.70;99.90;;;;;;4160661;28;20088;-71
2023/05/01 02:10:58;;;;;;;9.07;4.87;;;8.70;99.90;;;;;;4162842;28;20091;-69
2023/05/01 02:13:00;;;;;;;6.77;4.87;;;8.60;99.90;;;;;;4160479;28;20502;-65
2023/05/01 02:15:02;;;;;;;6.73;4.70;;;8.60;99.90;;;;;;4161500;28;20556;-67
2023/05/01 02:17:04;;;;;;;6.57;5.00;;;8.50;99.90;;;;;;4160940;28;20107;-67
2023/05/01 02:19:06;;;;;;;4.97;3.93;;;8.50;99.90;;;;;;4162439;28;20117;-66
2023/05/01 02:21:08;;;;;;;9.83;4.93;;;8.50;99.90;;;;;;4161342;28;20037;-68
2023/05/01 02:23:11;;;;;;;9.40;4.90;;;8.50;99.90;;;;;;4162361;28;20561;-69
2023/05/01 02:25:13;;;;;;;9.70;5.20;;;8.50;99.90;;;;;;4160293;28;20053;-71
2023/05/01 02:27:22;;;;;;;7.03;4.30;;;8.50;99.90;;;;;;4161586;28;20080;-68
2023/05/01 02:29:24;;;;;;;7.93;4.97;;;8.50;99.90;;;;;;4142860;28;20034;-70
2023/05/01 02:31:25;;;;;;;6.27;4.77;;;8.50;99.90;;;;;;4161963;28;20087;-70
2023/05/01 02:33:27;;;;;;;6.77;4.83;;;8.50;99.90;;;;;;4160624;28;20083;-72
2023/05/01 02:35:28;;;;;;;8.73;6.00;;;8.50;99.90;;;;;;4161596;28;20033;-70
2023/05/01 02:37:29;;;;;;;15.30;8.63;;;8.40;99.90;;;;;;4161596;28;20478;-62
2023/05/01 02:39:31;;;;;;;34.73;19.67;;;8.40;99.90;;;;;;4158155;28;20096;-69
2023/05/01 02:41:34;;;;;;;33.87;16.73;;;8.40;99.90;;;;;;4145678;28;20092;-68
2023/05/01 02:43:37;;;;;;;71.40;31.03;;;8.40;99.90;;;;;;4144092;28;20050;-67
2023/05/01 02:45:40;;;;;;;86.43;36.30;;;8.40;99.90;;;;;;4144867;28;20053;-68
2023/05/01 02:47:44;;;;;;;54.40;24.30;;;8.40;99.90;;;;;;4144447;28;20076;-64
2023/05/01 02:49:47;;;;;;;35.73;18.13;;;8.40;99.90;;;;;;4145539;28;20445;-70
2023/05/01 02:51:49;;;;;;;33.80;14.63;;;8.40;99.90;;;;;;4144521;28;20026;-72
2023/05/01 02:53:51;;;;;;;53.40;20.80;;;8.30;99.90;;;;;;4145683;28;20029;-72
2023/05/01 02:55:52;;;;;;;51.17;20.60;;;8.30;99.90;;;;;;4144601;28;20041;-69
2023/05/01 02:57:58;;;;;;;41.17;17.00;;;8.30;99.90;;;;;;4144654;28;20100;-70
2023/05/01 02:59:59;;;;;;;30.57;13.70;;;8.20;99.90;;;;;;4144427;28;20030;-67
2023/05/01 03:02:00;;;;;;;89.03;29.33;;;8.20;99.90;;;;;;4145606;28;20087;-72
2023/05/01 03:04:02;;;;;;;69.43;24.17;;;8.20;99.90;;;;;;4144406;28;20037;-72
2023/05/01 03:06:04;;;;;;;68.40;27.43;;;8.20;99.90;;;;;;4145383;28;20506;-72
2023/05/01 03:08:05;;;;;;;81.53;30.33;;;8.10;99.90;;;;;;4144685;28;20482;-72
2023/05/01 03:10:07;;;;;;;104.07;39.57;;;8.10;99.90;;;;;;4144399;28;20426;-72
2023/05/01 03:12:08;;;;;;;40.57;18.10;;;8.10;99.90;;;;;;4126640;28;20081;-72
2023/05/01 03:14:10;;;;;;;41.80;18.83;;;8.10;99.90;;;;;;4144635;28;20034;-71
2023/05/01 03:16:11;;;;;;;113.30;43.23;;;8.10;99.90;;;;;;4144443;28;20049;-72
2023/05/01 03:18:12;;;;;;;45.03;21.40;;;8.10;99.90;;;;;;4144211;28;20116;-70
2023/05/01 03:20:13;;;;;;;95.87;35.53;;;8.10;99.90;;;;;;4144389;28;20045;-72
2023/05/01 03:22:15;;;;;;;85.60;32.53;;;8.10;99.90;;;;;;4144152;28;20076;-72
2023/05/01 03:24:16;;;;;;;77.47;30.60;;;8.20;99.90;;;;;;4145365;28;20072;-71
2023/05/01 03:26:17;;;;;;;66.87;28.10;;;8.20;99.90;;;;;;4143179;28;20449;-71
2023/05/01 03:28:19;;;;;;;89.00;35.00;;;8.40;99.90;;;;;;4145289;28;20038;-70
2023/05/01 03:30:20;;;;;;;34.20;15.73;;;8.60;99.90;;;;;;4144206;28;20030;-70
2023/05/01 03:32:22;;;;;;;16.77;7.97;;;8.70;99.90;;;;;;4145161;28;20493;-64
2023/05/01 03:34:23;;;;;;;11.63;6.57;;;8.90;99.90;;;;;;4143254;28;20042;-71
2023/05/01 03:36:24;;;;;;;17.47;8.10;;;9.10;99.90;;;;;;4144085;28;20033;-67
2023/05/01 03:38:26;;;;;;;32.33;13.17;;;9.20;99.90;;;;;;4143455;28;20491;-70
2023/05/01 03:40:27;;;;;;;23.53;10.00;;;9.40;99.90;;;;;;4155786;28;20050;-68
2023/05/01 03:42:28;;;;;;;16.43;7.57;;;9.50;99.90;;;;;;4150914;28;20064;-68
2023/05/01 03:44:29;;;;;;;13.33;7.40;;;9.70;99.90;;;;;;4151985;28;20045;-71
2023/05/01 03:46:31;;;;;;;18.23;9.90;;;10.00;99.90;;;;;;4153543;28;20104;-69
2023/05/01 03:48:32;;;;;;;12.17;6.53;;;10.20;99.90;;;;;;4147809;28;20075;-72
2023/05/01 03:50:33;;;;;;;26.33;13.07;;;10.40;99.90;;;;;;4159279;28;20096;-70
2023/05/01 03:52:35;;;;;;;24.83;13.73;;;10.70;99.90;;;;;;4147159;28;20056;-70
2023/05/01 03:54:37;;;;;;;24.63;12.90;;;11.00;99.90;;;;;;4148257;28;20030;-71
2023/05/01 03:56:38;;;;;;;14.90;8.93;;;11.30;99.90;;;;;;4147101;28;20406;-71
2023/05/01 03:58:39;;;;;;;13.77;7.77;;;11.60;99.90;;;;;;4148165;28;20026;-69
2023/05/01 04:00:40;;;;;;;9.70;6.23;;;11.90;99.90;;;;;;4146907;28;20429;-71
2023/05/01 04:02:41;;;;;;;8.00;4.90;;;12.20;99.90;;;;;;4149819;28;20100;-62
2023/05/01 04:04:43;;;;;;;6.77;4.70;;;12.60;99.90;;;;;;4146408;28;20042;-64
2023/05/01 04:06:44;;;;;;;6.50;4.57;;;12.80;99.90;;;;;;4147274;28;20049;-64
2023/05/01 04:08:45;;;;;;;6.30;4.20;;;13.10;99.90;;;;;;4146877;28;20025;-62
2023/05/01 04:10:46;;;;;;;8.53;3.97;;;13.40;99.90;;;;;;4148106;28;20068;-62
2023/05/01 04:12:47;;;;;;;5.17;4.17;;;13.70;99.90;;;;;;4149353;28;20550;-65
2023/05/01 04:14:48;;;;;;;8.07;4.13;;;14.00;99.90;;;;;;4153324;28;20076;-73
2023/05/01 04:16:50;;;;;;;6.97;4.00;;;14.20;99.90;;;;;;4163156;28;20041;-72
2023/05/01 04:18:51;;;;;;;4.80;4.03;;;14.50;99.90;;;;;;4141963;28;20041;-69
2023/05/01 04:20:52;;;;;;;4.37;3.87;;;14.80;99.90;;;;;;4153624;28;20045;-71
2023/05/01 04:22:54;;;;;;;11.10;3.80;;;15.10;99.90;;;;;;4162752;28;20083;-66
2023/05/01 04:24:55;;;;;;;3.83;3.17;;;15.40;99.90;;;;;;4163370;28;20037;-60
2023/05/01 04:26:57;;;;;;;4.47;3.27;;;15.60;99.90;;;;;;4160649;28;20103;-69
2023/05/01 04:28:59;;;;;;;7.27;3.37;;;15.90;99.90;;;;;;4162895;28;20053;-70
2023/05/01 04:31:00;;;;;;;4.97;3.60;;;16.00;99.90;;;;;;4153817;28;20552;-71
2023/05/01 04:33:02;;;;;;;4.83;3.40;;;16.40;99.90;;;;;;4147173;28;20149;-70
2023/05/01 04:35:04;;;;;;;4.60;3.40;;;16.50;99.90;;;;;;4145896;28;20042;-70
2023/05/01 04:37:07;;;;;;;5.78;3.53;;;16.70;99.90;;;;;;4162180;28;20440;-70
2023/05/01 04:39:09;;;;;;;4.20;2.85;;;17.10;99.90;;;;;;4161876;28;20041;-70
2023/05/01 04:41:10;;;;;;;4.50;3.63;;;17.20;99.90;;;;;;4162252;28;20030;-70
2023/05/01 04:43:12;;;;;;;4.10;2.95;;;17.50;99.90;;;;;;4146099;28;20041;-69
2023/05/01 04:45:13;;;;;;;5.57;3.50;;;17.90;99.90;;;;;;4148296;28;20081;-61
2023/05/01 04:47:14;;;;;;;4.03;3.20;;;18.20;99.90;;;;;;4163179;28;20030;-70
2023/05/01 04:49:15;;;;;;;5.70;3.20;;;18.60;99.90;;;;;;4162315;28;20489;-69
2023/05/01 04:51:17;;;;;;;3.25;2.95;;;;;;;;;;4156880;28;20038;-72
2023/05/01 04:53:18;;;;;;;5.47;3.80;;;;;;;;;;4155793;28;20069;-71
2023/05/01 04:55:20;;;;;;;4.60;3.08;;;;;;;;;;4163623;28;20025;-68
2023/05/01 04:57:21;;;;;;;3.88;3.10;;;;;;;;;;4162243;28;20465;-69
2023/05/01 04:59:22;;;;;;;4.85;3.00;;;;;;;;;;4162578;28;20034;-68
2023/05/01 05:01:24;;;;;;;3.67;2.72;;;;;;;;;;4151778;28;20046;-68
2023/05/01 05:03:26;;;;;;;3.13;2.80;;;;;;;;;;4150901;28;20037;-71
2023/05/01 05:05:27;;;;;;;4.47;3.08;;;;;;;;;;4152925;28;20038;-68
2023/05/01 05:07:29;;;;;;;3.58;2.85;;;;;;;;;;4147001;28;20080;-64
2023/05/01 05:09:30;;;;;;;4.68;2.72;;;;;;;;;;4145805;28;20486;-65
2023/05/01 05:11:31;;;;;;;4.68;3.17;;;;;;;;;;4129256;28;20034;-70
2023/05/01 05:13:33;;;;;;;2.90;2.65;;;;;;;;;;4132359;28;20074;-69
2023/05/01 05:15:34;;;;;;;4.90;3.28;;;;;;;;;;4162409;28;20079;-70
2023/05/01 05:17:36;;;;;;;4.93;3.30;;;;;;;;;;4158474;28;20042;-70
2023/05/01 05:19:37;;;;;;;4.00;2.90;;;;;;;;;;4147150;28;20083;-64
2023/05/01 05:21:38;;;;;;;3.30;3.00;;;;;;;;;;4147432;28;20103;-71
2023/05/01 05:23:40;;;;;;;4.97;3.45;;;;;;;;;;4148437;28;20049;-69
2023/05/01 05:25:41;;;;;;;5.10;3.22;;;;;;;;;;4162996;28;20115;-69
2023/05/01 05:27:43;;;;;;;4.13;3.20;;;;;;;;;;4158708;28;20524;-70
2023/05/01 05:29:44;;;;;;;4.45;2.97;;;;;;;;;;4146664;28;20041;-70
2023/05/01 05:31:46;;;;;;;5.78;3.70;;;;;;;;;;4127751;28;20042;-70
2023/05/01 05:33:47;;;;;;;3.95;3.55;;;;;;;;;;4154061;28;20417;-70
2023/05/01 05:35:49;;;;;;;5.63;3.58;;;;;;;;;;4145318;28;20437;-70
2023/05/01 05:37:50;;;;;;;4.93;3.53;;;;;;;;;;4147368;28;20030;-60
2023/05/01 05:39:52;;;;;;;7.00;3.80;;;;;;;;;;4145234;28;20096;-70
2023/05/01 05:41:54;;;;;;;5.68;3.75;;;19.00;99.90;;;;;;4146719;28;20084;-61
2023/05/01 05:43:55;;;;;;;5.72;4.60;;;20.20;93.10;;;;;;4150410;28;20013;-70
2023/05/01 05:45:57;;;;;;;9.93;4.35;;;20.20;93.00;;;;;;4158538;28;20045;-67
2023/05/01 05:47:58;;;;;;;7.68;4.05;;;19.80;93.30;;;;;;4161754;28;20080;-71
2023/05/01 05:49:59;;;;;;;5.72;3.63;;;19.60;93.50;;;;;;4161369;28;20048;-71
2023/05/01 05:52:01;;;;;;;3.80;3.17;;;;;;;;;;4145277;28;20042;-70
2023/05/01 05:54:02;;;;;;;6.35;3.42;;;;;;;;;;4145689;28;20022;-72
2023/05/01 05:56:04;;;;;;;4.15;3.50;;;;;;;;;;4145952;28;20101;-71
2023/05/01 05:58:05;;;;;;;10.00;6.68;;;;;;;;;;4144896;28;20442;-68
2023/05/01 06:00:08;;;;;;;8.23;5.75;;;19.90;93.60;;;;;;4146219;28;20154;-69
2023/05/01 06:02:10;;;;;;;5.45;4.15;;;20.50;92.60;;;;;;4145184;28;20038;-64
2023/05/01 06:04:12;;;;;;;5.28;3.50;;;20.10;92.80;;;;;;4161330;28;20103;-64
2023/05/01 06:06:14;;;;;;;8.57;4.05;;;20.20;93.00;;;;;;4142956;28;20493;-66
2023/05/01 06:08:15;;;;;;;6.18;3.60;;;;;;;;;;4160631;28;20049;-69
2023/05/01 06:10:17;;;;;;;10.55;4.05;;;;;;;;;;4161260;28;20029;-69
2023/05/01 06:12:18;;;;;;;8.88;3.55;;;;;;;;;;4162376;28;20075;-61
2023/05/01 06:14:20;;;;;;;6.30;3.75;;;;;;;;;;4160403;28;20422;-64
2023/05/01 06:16:21;;;;;;;8.05;3.53;;;;;;;;;;4159191;28;20045;-69
2023/05/01 06:18:23;;;;;;;5.43;3.70;;;;;;;;;;4146630;28;20049;-70
2023/05/01 06:20:24;;;;;;;4.20;3.38;;;20.30;93.00;;;;;;4144834;28;20433;-61
2023/05/01 06:22:25;;;;;;;5.63;3.20;;;20.60;91.80;;;;;;4146333;28;20026;-69
2023/05/01 06:24:26;;;;;;;5.15;2.80;;;20.20;92.30;;;;;;4144900;28;20042;-67
2023/05/01 06:26:27;;;;;;;5.60;3.10;;;20.30;92.60;;;;;;4145601;28;20084;-67
2023/05/01 06:28:28;;;;;;;7.32;3.65;;;20.20;92.30;;;;;;4145637;28;20029;-72
2023/05/01 06:30:29;;;;;;;4.25;2.80;;;20.10;92.30;;;;;;4159235;28;20049;-73
2023/05/01 06:32:31;;;;;;;6.78;2.60;;;19.80;92.50;;;;;;4160167;28;20041;-73
2023/05/01 06:34:32;;;;;;;4.90;2.88;;;19.20;92.90;;;;;;4161895;28;20075;-70
2023/05/01 06:36:33;;;;;;;4.13;2.85;;;18.70;93.40;;;;;;4160475;28;20041;-73
2023/05/01 06:38:34;;;;;;;5.88;3.17;;;18.30;93.80;;;;;;4162006;28;20111;-72
2023/05/01 06:40:35;;;;;;;5.40;3.97;;;17.70;94.40;;;;;;4161197;28;20416;-71
2023/05/01 06:42:37;;;;;;;3.72;3.42;;;17.20;95.60;;;;;;4161583;28;20037;-71
2023/05/01 06:44:38;;;;;;;3.83;3.42;;;17.20;95.90;;;;;;4158450;28;20033;-70
2023/05/01 06:46:40;;;;;;;3.75;3.45;;;17.40;95.90;;;;;;4161444;28;20045;-72
2023/05/01 06:48:41;;;;;;;4.80;3.53;;;18.10;95.60;;;;;;4152042;28;20123;-71
2023/05/01 06:50:42;;;;;;;4.72;3.45;;;18.00;95.10;;;;;;4159756;28;20421;-71
2023/05/01 06:52:43;;;;;;;6.25;4.00;;;17.60;95.30;;;;;;4144189;28;20038;-67
2023/05/01 06:54:44;;;;;;;6.78;3.90;;;17.40;95.80;;;;;;4143833;28;20038;-61
2023/05/01 06:56:45;;;;;;;5.57;3.45;;;17.50;95.70;;;;;;4161340;28;20029;-62
2023/05/01 06:58:46;;;;;;;6.15;3.60;;;17.20;95.60;;;;;;4160558;28;20092;-65
2023/05/01 07:00:47;;;;;;;4.50;3.63;;;16.80;96.00;;;;;;4161593;28;20174;-74
2023/05/01 07:02:49;;;;;;;5.03;3.70;;;16.90;96.30;;;;;;4160579;28;20080;-67
2023/05/01 07:04:51;;;;;;;6.40;3.63;;;16.80;96.20;;;;;;4157760;28;20067;-68
2023/05/01 07:06:52;;;;;;;4.38;3.53;;;16.80;96.30;;;;;;4150344;28;20049;-70
2023/05/01 07:08:53;;;;;;;7.38;3.83;;;16.80;96.20;;;;;;4144884;28;20107;-72
2023/05/01 07:10:55;;;;;;;4.50;3.40;;;17.00;96.00;;;;;;4148115;28;20512;-73
2023/05/01 07:12:56;;;;;;;4.07;3.25;;;17.10;95.50;;;;;;4160193;28;20045;-72
2023/05/01 07:14:57;;;;;;;3.83;3.03;;;17.10;95.50;;;;;;4162613;28;20045;-72
2023/05/01 07:16:58;;;;;;;5.28;3.53;;;17.10;94.90;;;;;;4164800;28;20033;-70
2023/05/01 07:18:59;;;;;;;4.35;3.42;;;17.30;95.40;;;;;;4146429;28;20096;-72
2023/05/01 07:21:00;;;;;;;6.65;3.53;;;17.30;95.40;;;;;;4164560;28;20025;-72
2023/05/01 07:23:02;;;;;;;3.55;3.13;;;17.60;95.20;;;;;;4146297;28;20057;-71
2023/05/01 07:25:03;;;;;;;6.15;3.85;;;17.40;95.50;;;;;;4163521;28;20483;-72
2023/05/01 07:27:05;;;;;;;8.13;4.32;;;17.60;95.70;;;;;;4159894;28;20468;-70
2023/05/01 07:29:06;;;;;;;4.57;3.38;;;17.50;95.70;;;;;;4154052;28;20486;-70
2023/05/01 07:31:10;;;;;;;7.13;3.50;;;17.40;95.60;;;;;;4148462;28;20030;-74
2023/05/01 07:33:11;;;;;;;4.03;3.13;;;17.50;95.80;;;;;;4147299;28;20548;-72
2023/05/01 07:35:12;;;;;;;6.85;3.80;;;17.60;95.60;;;;;;4148401;28;20370;-71
2023/05/01 07:37:13;;;;;;;4.93;3.58;;;17.40;95.60;;;;;;4147167;28;20041;-74
2023/05/01 07:39:16;;;;;;;5.20;3.10;;;17.10;95.80;;;;;;4149457;28;20588;-72
2023/05/01 07:41:17;;;;;;;5.60;3.97;;;17.10;95.80;;;;;;4163748;28;20033;-63
2023/05/01 07:43:18;;;;;;;4.53;3.15;;;17.20;95.70;;;;;;4164307;28;20033;-70
2023/05/01 07:45:20;;;;;;;4.72;3.20;;;17.30;95.60;;;;;;4161451;28;20029;-68
2023/05/01 07:47:22;;;;;;;4.20;3.33;;;17.40;95.40;;;;;;4163516;28;20057;-70
2023/05/01 07:49:23;;;;;;;2.78;2.53;;;17.10;95.20;;;;;;4161074;28;20038;-69
2023/05/01 07:51:24;;;;;;;6.85;4.47;;;17.00;95.30;;;;;;4147708;28;20022;-69
2023/05/01 07:53:25;;;;;;;6.25;3.30;;;17.00;95.40;;;;;;4147402;28;20030;-72
2023/05/01 07:55:26;;;;;;;5.18;3.30;;;17.10;95.70;;;;;;4147271;28;20430;-69
2023/05/01 07:57:27;;;;;;;6.25;3.58;;;16.90;95.70;;;;;;4163197;28;20041;-64
2023/05/01 07:59:29;;;;;;;7.25;3.60;;;16.70;95.90;;;;;;4163201;28;20033;-68
2023/05/01 08:01:30;;;;;;;6.03;3.97;;;16.70;96.00;;;;;;4155161;28;20033;-63
2023/05/01 08:03:31;;;;;;;5.82;3.25;;;16.80;95.90;;;;;;4149878;28;20108;-64
2023/05/01 08:05:32;;;;;;;6.45;3.05;;;16.80;96.00;;;;;;4164207;28;20038;-65
2023/05/01 08:07:33;;;;;;;5.57;3.10;;;16.80;96.20;;;;;;4162285;28;20049;-65
2023/05/01 08:09:35;;;;;;;4.55;3.20;;;16.80;96.10;;;;;;4164282;28;20041;-70
2023/05/01 08:11:36;;;;;;;3.42;2.90;;;16.90;96.00;;;;;;4163376;28;20038;-66
2023/05/01 08:13:37;;;;;;;4.47;2.55;;;16.90;96.10;;;;;;4163348;28;20091;-62
2023/05/01 08:15:41;;;;;;;3.55;3.25;;;16.80;96.00;;;;;;4162077;28;20041;-67
2023/05/01 08:17:42;;;;;;;4.45;2.83;;;17.00;96.10;;;;;;4161908;28;20092;-63
2023/05/01 08:19:44;;;;;;;4.53;3.13;;;17.10;96.10;;;;;;4151250;28;20034;-69
2023/05/01 08:21:45;;;;;;;3.42;2.92;;;17.10;95.90;;;;;;4129813;28;20046;-68
2023/05/01 08:23:46;;;;;;;3.53;2.85;;;17.20;95.90;;;;;;4146923;28;20025;-65
2023/05/01 08:25:49;;;;;;;3.28;2.92;;;17.10;95.90;;;;;;4146495;28;20038;-63
2023/05/01 08:27:51;;;;;;;3.55;2.60;;;17.10;96.00;;;;;;4151392;28;20485;-63
2023/05/01 08:29:52;;;;;;;3.97;2.70;;;17.10;96.10;;;;;;4154678;28;20493;-65
2023/05/01 08:31:54;;;;;;;4.07;2.80;;;17.30;95.80;;;;;;4147143;28;20076;-64
2023/05/01 08:33:56;;;;;;;3.65;2.92;;;17.30;95.50;;;;;;4147276;28;20112;-70
2023/05/01 08:35:58;;;;;;;8.02;3.13;;;17.30;95.10;;;;;;4148942;28;20076;-72
2023/05/01 08:38:00;;;;;;;3.75;2.85;;;17.50;94.90;;;;;;4146029;28;20076;-66
2023/05/01 08:40:07;;;;;;;3.45;3.00;;;17.60;94.60;;;;;;4148422;28;20025;-70
2023/05/01 08:42:08;;;;;;;6.05;3.38;;;17.50;94.50;;;;;;4146398;28;20022;-61
2023/05/01 08:44:10;;;;;;;7.18;2.38;;;17.50;94.60;;;;;;4147301;28;20451;-62
2023/05/01 08:46:14;;;;;;;5.35;2.50;;;17.70;94.60;;;;;;4147723;28;20104;-62
2023/05/01 08:48:17;;;;;;;5.30;2.55;;;17.70;94.60;;;;;;4161615;28;20022;-61
2023/05/01 08:50:21;;;;;;;2.85;2.47;;;17.70;94.00;;;;;;4162552;28;20018;-69
2023/05/01 08:52:24;;;;;;;3.67;2.95;;;17.90;93.80;;;;;;4162757;28;20548;-62
2023/05/01 08:54:26;;;;;;;4.72;2.45;;;18.00;93.20;;;;;;4144476;28;20037;-66
2023/05/01 08:56:30;;;;;;;6.72;2.30;;;17.90;93.20;;;;;;4162354;28;20441;-62
2023/05/01 08:58:34;;;;;;;3.45;2.78;;;18.00;93.00;;;;;;4162433;28;20084;-69
2023/05/01 09:00:37;;;;;;;3.75;2.70;;;18.10;92.80;;;;;;4162238;28;20033;-72
2023/05/01 09:02:40;;;;;;;4.13;2.60;;;18.10;92.90;;;;;;4160145;28;20029;-63
2023/05/01 09:04:41;;;;;;;2.55;1.90;;;18.00;92.70;;;;;;4161082;28;20072;-73
2023/05/01 09:06:43;;;;;;;2.90;2.15;;;17.90;92.80;;;;;;4159281;28;20529;-64
2023/05/01 09:08:45;;;;;;;3.67;2.28;;;17.90;92.60;;;;;;4160292;28;20046;-70
2023/05/01 09:10:48;;;;;;;3.50;3.03;;;18.00;92.70;;;;;;4160997;28;20201;-77
2023/05/01 09:12:55;;;;;;;3.17;2.33;;;18.00;92.90;;;;;;4161127;28;20429;-72
2023/05/01 09:14:57;;;;;;;6.20;3.05;;;18.20;92.90;;;;;;4162593;28;20441;-61
2023/05/01 09:16:58;;;;;;;2.67;2.47;;;18.20;92.80;;;;;;4161148;28;20499;-70
2023/05/01 09:18:59;;;;;;;5.05;2.13;;;18.20;92.90;;;;;;4162795;28;20111;-62
2023/05/01 09:21:02;;;;;;;5.07;2.35;;;18.20;92.90;;;;;;4161034;28;20033;-61
2023/05/01 09:23:03;;;;;;;3.33;2.30;;;18.20;93.00;;;;;;4162168;28;20033;-70
2023/05/01 09:25:05;;;;;;;5.18;2.50;;;18.10;92.70;;;;;;4161770;28;20033;-75
2023/05/01 09:27:07;;;;;;;3.67;2.35;;;18.10;93.00;;;;;;4162853;28;20080;-62
2023/05/01 09:29:09;;;;;;;2.33;1.98;;;18.30;92.80;;;;;;4161097;28;20038;-61
2023/05/01 09:31:31;;;;;;;3.25;1.95;;;18.50;92.40;;;;;;4162058;28;20096;-63
2023/05/01 09:33:32;;;;;;;2.92;2.10;;;18.70;92.10;;;;;;4161786;28;20034;-61
2023/05/01 09:35:58;;;;;;;4.40;2.35;;;18.60;92.30;;;;;;4162921;28;20025;-66
2023/05/01 09:37:59;;;;;;;4.82;2.10;;;18.50;92.00;;;;;;4160366;28;20029;-78
2023/05/01 09:40:03;;;;;;;4.82;2.50;;;18.50;92.10;;;;;;4162657;28;20079;-61
2023/05/01 09:42:04;;;;;;;3.53;2.00;;;18.60;91.80;;;;;;4161746;28;20492;-63
2023/05/01 09:44:18;;;;;;;2.30;2.00;;;18.90;91.70;;;;;;4162408;28;20018;-58
2023/05/01 09:46:21;;;;;;;3.42;1.70;;;19.10;90.90;;;;;;4161477;28;20029;-73
2023/05/01 09:48:22;;;;;;;3.22;2.50;;;19.00;90.50;;;;;;4161821;28;20057;-67
2023/05/01 09:50:31;;;;;;;6.15;2.10;;;18.90;90.40;;;;;;4161460;28;20033;-61
2023/05/01 09:52:32;;;;;;;5.85;3.42;;;19.10;90.80;;;;;;4161449;28;20046;-79
2023/05/01 09:54:33;;;;;;;2.72;1.77;;;19.20;90.40;;;;;;4161791;28;20029;-68
2023/05/01 09:56:46;;;;;;;2.35;1.83;;;19.10;89.70;;;;;;4161866;28;20029;-62
2023/05/01 09:58:49;;;;;;;5.03;2.10;;;19.10;89.00;;;;;;4161628;28;20025;-74
2023/05/01 10:00:52;;;;;;;3.13;2.05;;;19.10;89.30;;;;;;4161685;28;20045;-62
2023/05/01 10:02:53;;;;;;;5.65;1.63;;;19.00;89.20;;;;;;4161219;28;20041;-60
2023/05/01 10:04:57;;;;;;;2.88;2.15;;;19.10;88.80;;;;;;4160684;28;20080;-65
2023/05/01 10:07:12;;;;;;;4.57;1.90;;;19.20;88.00;;;;;;4161591;28;20114;-76
2023/05/01 10:09:26;;;;;;;3.55;1.77;;;19.10;87.60;;;;;;4161229;28;20033;-63
2023/05/01 10:11:28;;;;;;;4.55;2.50;;;18.90;87.80;;;;;;4162129;28;20026;-60
2023/05/01 10:13:29;;;;;;;3.28;1.90;;;19.00;88.30;;;;;;4160993;28;20415;-62
2023/05/01 10:15:36;;;;;;;3.53;1.90;;;19.20;88.30;;;;;;4161950;28;20563;-62
2023/05/01 10:17:39;;;;;;;6.70;1.77;;;19.30;87.50;;;;;;4160520;28;20099;-64
2023/05/01 10:19:40;;;;;;;2.55;1.90;;;19.50;87.90;;;;;;4162023;28;20087;-72
2023/05/01 10:21:42;;;;;;;2.13;1.85;;;19.60;87.90;;;;;;4160736;28;20103;-61
2023/05/01 10:23:43;;;;;;;2.50;1.95;;;19.60;86.80;;;;;;4161809;28;20037;-60
2023/05/01 10:25:45;;;;;;;2.13;1.77;;;19.70;87.20;;;;;;4160456;28;20037;-69
2023/05/01 10:27:47;;;;;;;2.42;1.83;;;19.80;87.90;;;;;;4161274;28;20096;-67
2023/05/01 10:29:52;;;;;;;5.05;2.25;;;19.70;86.80;;;;;;4160370;28;20037;-62
2023/05/01 10:31:54;;;;;;;3.97;2.35;;;19.40;86.70;;;;;;4161606;28;20091;-61
2023/05/01 10:33:55;;;;;;;3.08;1.90;;;19.30;87.20;;;;;;4160602;28;20551;-76
2023/05/01 10:35:59;;;;;;;3.13;2.17;;;19.30;87.30;;;;;;4161017;28;20107;-61
2023/05/01 10:38:01;;;;;;;5.70;2.25;;;19.20;87.00;;;;;;4161052;28;20052;-76
2023/05/01 10:40:40;;;;;;;2.72;1.50;;;19.20;87.20;;;;;;4161463;28;20029;-77
2023/05/01 10:43:12;;;;;;;7.25;2.30;;;19.20;86.40;;;;;;4161153;28;20101;-76
2023/05/01 10:45:33;;;;;;;6.75;2.92;;;19.30;86.50;;;;;;4161876;28;20513;-75
2023/05/01 10:47:36;;;;;;;5.07;2.40;;;19.30;86.80;;;;;;4159886;28;20049;-73
2023/05/01 10:50:03;;;;;;;3.13;2.30;;;19.40;85.70;;;;;;4161275;28;20072;-66
2023/05/01 10:52:04;;;;;;;4.13;2.03;;;19.40;84.90;;;;;;4160286;28;20041;-69